AirNav   Duncan Aviation - Near you to keep you flying
 
 1144 users online  

55CL Strain Ranch Airport
Arbuckle, California, USA

GOING TO ARBUCKLE?


FAA INFORMATION EFFECTIVE 04 NOVEMBER 2021

Location

FAA Identifier: 55CL
Lat/Long: 39-03-11.0000N 122-05-44.0000W
39-03.183333N 122-05.733333W
39.0530556,-122.0955556
(estimated)
Elevation: 123 ft. / 37 m (estimated)
From city: 2 miles NNW of ARBUCKLE, CA
Time zone: UTC -8 (UTC -7 during Daylight Saving Time)
Zip code: 95912

Airport Operations

Airport use: Private use. Permission required prior to landing
Activation date: 04/2016
Control tower: no
ARTCC: OAKLAND CENTER
FSS: RANCHO MURIETA FLIGHT SERVICE STATION
Attendance: MON-FRI 0700-1900
Wind indicator: yes
Segmented circle: no

Nearby radio navigation aids

VOR radial/distance  VOR name  Freq  Var
ILAr233/3.4WILLIAMS VORTAC114.4018E
MYVr248/24.5MARYSVILLE VOR/DME110.8016E
MCCr289/39.7MC CLELLAN VOR/DME109.2017E

Airport Services

Runway Information

Runway 17/35

Dimensions: 3000 x 40 ft. / 914 x 12 m
Surface: asphalt
RUNWAY 17  RUNWAY 35
Traffic pattern: leftleft

Airport Ownership and Management from official FAA records

Ownership: Privately-owned
Owner: STRAIN WESTSIDE LAND
P.O. BOX 807
ARBUCKLE, CA 95912
Phone 530-476-3286
Manager: DERICK STRAIN
P.O. BOX 807
ARBUCKLE, CA 95912
Phone 530-476-3286

Airport Operational Statistics

Aircraft based on the field: 1
Single engine airplanes: 1
    

Additional Remarks

FOR CD CTC OAKLAND ARTCC AT 510-745-3380.

Instrument Procedures

There are no published instrument procedures at 55CL.

Some nearby airports with instrument procedures:

O08 - Colusa County Airport (9 nm NE)
KMYV - Yuba County Airport (25 nm E)
O41 - Watts-Woodland Airport (25 nm SE)
KWLW - Willows-Glenn County Airport (28 nm N)
KDWA - Yolo County Airport (31 nm S)
 
Loc | Ops | Rwys | IFR | FBO | Links
Com | Nav | Svcs | Stats | Notes

Sonoma Jet Center
 
Aerial photo
No photo
 
Airport distance calculator
Flying to Strain Ranch Airport? Find the distance to fly.

From to 55CL

Sunrise and sunset
Times for 27-Nov-2021
 Local
(UTC-8)
 Zulu
(UTC)
Morning civil twilight06:3614:36
Sunrise07:0615:06
Sunset16:4700:47
Evening civil twilight17:1601:16

Current date and time
Zulu (UTC)  28-Nov-2021 02:06:36
Local (UTC-8)  27-Nov-2021 18:06:36
 
METAR
KMYV 
25nm E 
280153Z AUTO 00000KT 9SM CLR 12/08 A3014 RMK AO2 SLP210 T01220078
KDWA 
31nm S 
280155Z AUTO 00000KT 10SM CLR 14/09 A3015 RMK AO2
KBAB 
31nm E 
280143Z AUTO 00000KT 2 1/4SM HZ CLR 12/08 A3013 RMK AO2 SLP206 $
KSMF 
31nm SE 
280153Z 11003KT 10SM SCT250 14/07 A3013 RMK AO2 SLP202 T01440072
KEDU 
34nm SE 
280155Z AUTO 00000KT 10SM CLR 13/09 A3015 RMK AO1
KOVE 
35nm NE 
280153Z AUTO 09004KT 10SM CLR 14/08 A3015 RMK AO2 SLP210 T01440078
KLHM 
36nm E 
280155Z AUTO 00000KT 10SM CLR 12/07 A3013 RMK AO1
KMCC 
40nm SE 
280155Z AUTO 00000KT 10SM CLR 13/08 A3014 RMK AO2
KVCB 
41nm S 
280153Z AUTO 00000KT 10SM CLR 14/08 A3015 RMK AO2 SLP208 T01440083
KSAC 
43nm SE 
280153Z 00000KT 10SM CLR 12/08 A3014 RMK AO2 SLP205 T01220078
TAF
KSMF 
31nm SE 
271759Z 2718/2818 31004KT P6SM SCT250 FM272000 36005KT P6SM SCT250 FM280400 18002KT 6SM BR BKN250 FM280900 14002KT 2SM BR SCT250 FM281500 15002KT 1SM BR SKC TEMPO 2815/2818 1/2SM FG
NOTAMs
Click for the latest NOTAMs
NOTAMs are issued by the DoD/FAA and will open in a separate window not controlled by AirNav.

 

 
 

Would you like to see your business listed on this page?

 If your business provides an interesting product or service to pilots, flight crews, aircraft, or users of the Strain Ranch Airport, you should consider listing it here.  To start the listing process, click on the button below
 
Add a business
 

Other Pages about Strain Ranch Airport

Update a link
 
Copyright © AirNav, LLC. All rights reserved. Privacy Policy  Contact